Warning: fopen(/var/www/metroair/shared/private/wxdata/metar/AVWX/metar_KRST): failed to open stream: Permission denied in /var/www/metroair/shared/private/library/orig_library/lib_airport.php on line 346

Warning: fwrite() expects parameter 1 to be resource, boolean given in /var/www/metroair/shared/private/library/orig_library/lib_airport.php on line 347

Warning: fclose() expects parameter 1 to be resource, boolean given in /var/www/metroair/shared/private/library/orig_library/lib_airport.php on line 348

Warning: fopen(/var/www/metroair/shared/private/wxdata/TAF/AVWX/taf_KRST): failed to open stream: Permission denied in /var/www/metroair/shared/private/library/orig_library/lib_airport.php on line 533

Warning: fwrite() expects parameter 1 to be resource, boolean given in /var/www/metroair/shared/private/library/orig_library/lib_airport.php on line 534

Warning: fclose() expects parameter 1 to be resource, boolean given in /var/www/metroair/shared/private/library/orig_library/lib_airport.php on line 535

MET2387 - Kansas City to Rochester

Bombardier Dash-8-Q200
838AH
1 hr 15 mins
294 nm
Scheduled - Daily

Bid/PiRep Status

Bid was submitted on Nov 22 2016.

PiRep # 74153: Approved by Dave Nichols on November 28th, 2016 5:07 UTC

Departure

Departing from
Kansas City (MCI)
Departure gate
Scheduled Departure
GMT 2000
Local 1400
METAR KMCI 222353Z 34010KT 9SM OVC012 03/00 A2980 RMK AO2 SLP096 T00330000 10033 20011 53022
TAF KMCI 222326Z 2300/2324 34012KT P6SM OVC012 FM230400 33010KT 5SM BR OVC010 FM231200 32006KT 4SM BR SCT015 FM231400 VRB04KT P6SM SCT150
  • No charts available

Arrival

Arriving at
Rochester (RST)
Arrival gate
A4
Scheduled Arrival
GMT 2115
Local 1515
METAR KRST 222354Z 31008KT 5SM BR OVC003 01/01 A2974 RMK AO2 SLP084 T00110011 10017 20006 53013
TAF KRST 222325Z 2300/2324 31007KT 3SM BR OVC004 FM230200 30007KT 1SM BR OVC002 FM231700 29006KT 2SM BR OVC006 FM232100 29006KT 5SM BR BKN010

Route Map

Planning Resources

ROYAL3 TONCE DSM J25 MCW YESUR [D147M] EGACE [D110M] D095M
ROYAL3 TONCE DSM J25 MCW RST
ROYAL 5 STJ DSM J25 MCW RST KRST
MCI STJ DSM J25 MCW RST
BACNN DSM JORDY MCW
Route:
OFP Layout:
Units:
Detailed Navlog:
ETOPS Planning:
Plan Stepclimbs:
Runway Analysis:
Include NOTAMS:
FIR NOTAMS:
Flight Maps:

Return Flights

MET2386
Bombardier Dash-8-Q200
1635 GMT
MET2388
Bombardier Dash-8-Q200
2135 GMT

Popularity

Hub Current Bids PiReps this month Total PiReps
KMCI 0 0 3
KLAX 0 0 0
KBOS 0 0 0